portalspozywczy.pl alexa rank chart, portalspozywczy.pl alexa rank daily changes

portalspozywczy.pl alexa rank chart, portalspozywczy.pl alexa rank daily changes

portalspozywczy.pl
Actual rank:
120 525

RANK HISTORY

Date Rank Diff
2018/06/24 120 525 -83 328
2018/06/23 203 853 +54 136
2018/06/22 149 717 -45 740
2018/06/21 195 457 +80 072
2018/06/20 115 385 -69 437
2018/06/19 184 822 -482 033
2018/06/18 666 855 +466 244
2018/06/17 200 611 -27 851
2018/06/16 228 462 +151 865
2018/06/15 76 597 -127 035
2018/06/14 203 632 +81 141
2018/06/13 122 491 -541 175
2018/06/12 663 666 +65 600
2018/06/11 598 066 +373 218
2018/06/10 224 848 +75 080
2018/06/09 149 768 -49 251
2018/06/08 199 019 +79 537
2018/06/07 119 482 -20 309
2018/06/06 139 791 +34 985
2018/06/05 104 806 -287 387
2018/06/04 392 193 +208 635
2018/06/03 183 558 -125 889
2018/06/02 309 447 +149 820
2018/06/01 159 627 +56 794
2018/05/31 102 833 -84 232
2018/05/30 187 065 +3 845
2018/05/29 183 220 -140 871
2018/05/28 324 091 +94 502
2018/05/27 229 589 +107 633
2018/05/26 121 956 -46 207
2018/05/25 168 163 +34 364
2018/05/24 133 799 -51 827
2018/05/23 185 626 -3 574
2018/05/22 189 200 +41 323
2018/05/21 147 877 +35 845
2018/05/20 112 032 -42 010
2018/05/19 154 042 -95 601
2018/05/18 249 643 +122 199
2018/05/17 127 444 -8 925
2018/05/16 136 369 -7 570
2018/05/15 143 939 -24 244
2018/05/14 168 183 +36 954
2018/05/13 131 229 +6 928
2018/05/12 124 301 -119 287
2018/05/11 243 588 +119 043
2018/05/10 124 545 -131 303
2018/05/09 255 848 +104 191
2018/05/08 151 657 +12 964
2018/05/07 138 693 -54 243
2018/05/06 192 936 +21 132
2018/05/05 171 804 +44 241
2018/05/04 127 563 +29 773
2018/05/03 97 790 -128 790
2018/05/02 226 580 -165 077
2018/05/01 391 657 +187 200
2018/04/30 204 457 -22 319
2018/04/29 226 776 -395 080
2018/04/28 621 856 +518 243
2018/04/27 103 613 -1 194
2018/04/26 104 807 -14 920
2018/04/25 119 727

WIDGET FOR YOUR SITE

DOMAINS WITH THE NEAREST RANK

Domain Rank
isejingu.or.jp 120 520
mizuno.jp 120 521
sou-yun.com 120 522
t-com.ne.jp 120 523
colorkinetics.com 120 524
portalspozywczy.pl 120 525
bsmu.edu.ua 120 526
enallaktikos.gr 120 527
incablenet.net 120 528
ehx.com 120 529
mtkfirmware.net 120 530

DOMAINS WITH THE NEAREST RANK BY TLD .pl

Domain Rank
zmotoryzowani-24.pl 120 218
portel.pl 120 364
stiga.pl 120 401
quiosque.pl 120 509
twoja-gazetka.pl 120 510
portalspozywczy.pl 120 525
kuzniewski.pl 120 814
allrecipes.pl 121 003
24opole.pl 121 028
mapa-turystyczna.pl 121 029
wgospodarce.pl 121 110